METAR Data
IDs: Format: Raw Decoded Include TAF

Data at: 0945 UTC 26 Jan 2020

KEFT 260935Z AUTO 29009KT 10SM SCT008 BKN014 BKN039 M01/M02 A2990 RMK AO2 T10131021
KEFT 260915Z AUTO 29011KT 10SM BKN008 BKN020 OVC039 M01/M02 A2990 RMK AO2 T10101020
KEFT 260855Z AUTO 28014KT 10SM OVC008 M01/M02 A2990 RMK AO2 T10101018
KEFT 260835Z AUTO 27014KT 10SM OVC008 M01/M02 A2991 RMK AO2 T10071016
KEFT 260815Z AUTO 28012G19KT 10SM OVC008 M01/M02 A2990 RMK AO2 T10061016
KEFT 260755Z AUTO 28012G15KT 10SM OVC008 00/M01 A2990 RMK AO2 T10051015
KEFT 260735Z AUTO 28011KT 10SM OVC008 00/M01 A2990 RMK AO2 T10051015
KEFT 260715Z AUTO 28012G15KT 10SM OVC008 00/M01 A2990 RMK AO2 T10051013
KEFT 260655Z AUTO 28009KT 10SM OVC008 00/M01 A2990 RMK AO2 T10041012
KEFT 260635Z AUTO 27011KT 10SM OVC010 00/M01 A2989 RMK AO2 T10021011
KEFT 260615Z AUTO 27011KT 10SM BKN010 OVC044 00/M01 A2990 RMK AO2 T10021011
KEFT 260555Z AUTO 27011KT 10SM BKN010 OVC044 00/M01 A2990 RMK AO2 T10011010 10002 21001 400111001
KEFT 260535Z AUTO 27012KT 10SM SCT010 OVC042 00/M01 A2990 RMK AO2 T10011010
KEFT 260515Z AUTO 27012KT 10SM BKN036 OVC042 00/M01 A2989 RMK AO2 T00001010
KEFT 260455Z AUTO 28011KT 10SM SCT020 OVC036 00/M01 A2989 RMK AO2 T00001010
KEFT 260435Z AUTO 27012KT 10SM SCT020 BKN040 OVC050 00/M01 A2989 RMK AO2 T00001008
KEFT 260415Z AUTO 27011KT 10SM BKN044 OVC050 00/M01 A2989 RMK AO2 T00001007
KEFT 260355Z AUTO 27012KT 10SM BKN013 SCT024 OVC045 00/M01 A2989 RMK AO2 T00001007
KEFT 260335Z AUTO 27010KT 10SM BKN013 OVC022 00/M01 A2989 RMK AO2 T00001006
KEFT 260315Z AUTO 27009KT 10SM OVC011 00/00 A2988 RMK AO2 T00001005
KEFT 260255Z AUTO 28008KT 10SM OVC011 00/00 A2988 RMK AO2 T00001005
KEFT 260235Z AUTO 28009KT 10SM SCT013 OVC019 00/M01 A2987 RMK AO2 T00001006
KEFT 260215Z AUTO 28009KT 10SM SCT012 OVC019 00/00 A2987 RMK AO2 T00011005
KEFT 260155Z AUTO 30010KT 10SM BKN010 OVC021 00/00 A2987 RMK AO2 T00011005
KEFT 260135Z AUTO 30010KT 10SM OVC010 00/00 A2987 RMK AO2 T00021005
KEFT 260115Z AUTO 30008KT 10SM OVC010 00/00 A2987 RMK AO2 T00021005
KEFT 260055Z AUTO 28010KT 10SM OVC010 00/M01 A2987 RMK AO2 T00011006
KEFT 260035Z AUTO 28010KT 10SM OVC010 00/M01 A2987 RMK AO2 T00011006
KEFT 260015Z AUTO 28009KT 10SM OVC010 00/00 A2986 RMK AO2 T00001005
KEFT 252355Z AUTO 28009KT 10SM OVC010 00/00 A2986 RMK AO2 T00001005 10010 20000
KEFT 252335Z AUTO 29010KT 10SM OVC008 00/00 A2985 RMK AO2 T00001005
KEFT 252315Z AUTO 29010KT 10SM OVC008 00/00 A2984 RMK AO2 T00001005
KEFT 252255Z AUTO 29008KT 10SM OVC010 00/00 A2984 RMK AO2 T00011005
KEFT 252235Z AUTO 28010KT 10SM OVC010 00/00 A2984 RMK AO2 T00021005
KEFT 252215Z AUTO 29010G18KT 10SM OVC010 00/00 A2983 RMK AO2 T00041005
KEFT 252155Z AUTO 29009KT 10SM OVC010 01/00 A2983 RMK AO2 T00051005
KEFT 252135Z AUTO 30010G16KT 10SM OVC008 01/00 A2983 RMK AO2 T00051005
KEFT 252115Z AUTO 30008G16KT 10SM OVC008 01/00 A2982 RMK AO2 T00051003
KEFT 252055Z AUTO 30010G14KT 5SM -DZ OVC008 00/00 A2982 RMK AO2 T00031001
KEFT 252035Z AUTO 29010KT 1 1/2SM -SN OVC008 00/00 A2982 RMK AO2 T00031001
KEFT 252015Z AUTO 29014KT 4SM -SN OVC010 01/00 A2981 RMK AO2 T00071002
KEFT 251955Z AUTO 29012KT 7SM OVC010 01/00 A2981 RMK AO2 T00061003
KEFT 251935Z AUTO 29010G15KT 10SM OVC010 01/00 A2981 RMK AO2 T00081002
KEFT 251915Z AUTO 29010G15KT 3SM -SN OVC008 01/00 A2981 RMK AO2 T00081001
KEFT 251855Z AUTO 28011KT 10SM -SN OVC008 01/00 A2981 RMK AO2 T00101001
KEFT 251835Z AUTO 28010G15KT 10SM OVC008 01/00 A2982 RMK AO2 T00100000
KEFT 251815Z AUTO 28013KT 7SM -DZ OVC008 01/00 A2981 RMK AO2 T00100000
KEFT 251755Z AUTO 29011KT 5SM -SN OVC008 01/00 A2982 RMK AO2 T00100000 10011 20002
KEFT 251735Z AUTO 29011G15KT 5SM BR OVC006 01/00 A2982 RMK AO2 T00110002
KEFT 251715Z AUTO 29012G15KT 2 1/2SM -SN OVC006 01/00 A2982 RMK AO2 T00100003
KEFT 251655Z AUTO 29011KT 2SM -SN OVC006 01/00 A2982 RMK AO2 T00090002
KEFT 251635Z AUTO 29010KT 2 1/2SM -SN OVC006 01/00 A2982 RMK AO2 T00080002
KEFT 251615Z AUTO 29011G16KT 3SM -SN OVC006 01/00 A2982 RMK AO2 T00070002
KEFT 251555Z AUTO 28009KT 7SM OVC006 01/00 A2982 RMK AO2 T00050001
KEFT 251535Z AUTO 29010G15KT 10SM -SN OVC006 01/00 A2981 RMK AO2 T00050001
KEFT 251515Z AUTO 30009KT 7SM -SN OVC006 01/00 A2981 RMK AO2 T00050001
KEFT 251455Z AUTO 30011G15KT 7SM -SN OVC006 01/00 A2981 RMK AO2 T00050001
KEFT 251435Z AUTO 30011G15KT 5SM -SN OVC004 00/00 A2981 RMK AO2 T00030001
KEFT 251415Z AUTO 29008KT 2SM -SN OVC004 00/00 A2981 RMK AO2 T00030001
KEFT 251355Z AUTO 29011G16KT 2SM -SN OVC004 00/00 A2980 RMK AO2 T00030002
KEFT 251335Z AUTO 29010G14KT 2SM -SN OVC004 00/00 A2980 RMK AO2 T00030002
KEFT 251315Z AUTO 29007KT 4SM -SN OVC004 00/00 A2979 RMK AO2 T00030002
KEFT 251255Z AUTO 29009KT 4SM -SN OVC004 00/00 A2979 RMK AO2 T00040003
KEFT 251235Z AUTO 29009KT 4SM -SN OVC004 00/00 A2979 RMK AO2 T00030003
KEFT 251215Z AUTO 29011KT 2 1/2SM -SN OVC004 00/00 A2978 RMK AO2 T00030003
KEFT 251155Z AUTO 29009KT 2SM -SN OVC004 00/00 A2978 RMK AO2 60006 70008 T00030003 10003 20001
KEFT 251135Z AUTO 29010KT 1 3/4SM -SN OVC004 00/00 A2978 RMK AO2 T00030003
KEFT 251115Z AUTO 29009KT 2SM -SN OVC004 00/00 A2978 RMK AO2 T00030003
KEFT 251055Z AUTO 29009KT 1 1/2SM -SN OVC004 00/00 A2977 RMK AO2 P0001 T00030003
KEFT 251035Z AUTO 29008KT 1 1/2SM -SN OVC004 00/00 A2977 RMK AO2 P0001 T00030003
KEFT 251015Z AUTO 30008KT 1 1/4SM -SN OVC004 00/00 A2977 RMK AO2 T00020002
KEFT 250955Z AUTO 30007KT 2SM -SN OVC004 00/00 A2977 RMK AO2 P0001 T00020002
KEFT 250935Z AUTO 30008KT 2 1/2SM -SN OVC004 00/00 A2977 RMK AO2 P0001 T00020002
KEFT 250915Z AUTO 30007KT 1 3/4SM -SN OVC002 00/00 A2977 RMK AO2 P0001 T00020002
KEFT 250855Z AUTO 32006KT 2SM -SN OVC002 00/00 A2978 RMK AO2 P0001 60004 T00020002
KEFT 250835Z AUTO 31007KT 2SM RA OVC002 00/00 A2978 RMK AO2 P0001 T00020002
KEFT 250815Z AUTO 31005KT 2SM -SN OVC002 00/00 A2978 RMK AO2 T00010001
KEFT 250755Z AUTO 31007KT 1 1/4SM -SN OVC002 00/00 A2977 RMK AO2 P0001 T00020002
KEFT 250735Z AUTO 31008KT 1 3/4SM -SN OVC002 00/00 A2977 RMK AO2 T00020002
KEFT 250715Z AUTO 31006KT 2 1/2SM -SN OVC002 00/00 A2977 RMK AO2 T00020002
KEFT 250655Z AUTO 31007KT 1 1/2SM -SN OVC002 00/00 A2977 RMK AO2 P0002 T00020002
KEFT 250635Z AUTO 32007KT 1 1/2SM -SN OVC002 00/00 A2977 RMK AO2 P0002 T00020002
KEFT 250615Z AUTO 32006KT 1 1/4SM -SN OVC002 00/00 A2978 RMK AO2 P0001 T00020002
KEFT 250555Z AUTO 32007KT 1 1/4SM -SN OVC002 00/00 A2978 RMK AO2 P0001 60002 T00020002 10007 20002 400121001
KEFT 250535Z AUTO 32006KT 1 1/2SM -SN OVC002 00/00 A2978 RMK AO2 P0001 T00030003
KEFT 250515Z AUTO 33007KT 1 3/4SM -SN OVC002 00/00 A2978 RMK AO2 T00030003
KEFT 250455Z AUTO 33007KT 2SM -SN OVC002 00/00 A2978 RMK AO2 T00030003
KEFT 250435Z AUTO 33008KT 1 1/2SM -SN OVC002 00/00 A2978 RMK AO2 T00020002
KEFT 250415Z AUTO 33008KT 1SM -SN OVC002 00/00 A2978 RMK AO2 T00020002
KEFT 250355Z AUTO 33006KT 1 3/4SM -SN OVC002 00/00 A2979 RMK AO2 T00030003
KEFT 250335Z AUTO 34005KT 2SM -SN OVC002 00/00 A2979 RMK AO2 T00030003
KEFT 250315Z AUTO 33006KT 2SM -SN OVC002 00/00 A2979 RMK AO2 T00030003
KEFT 250255Z AUTO 34006KT 2SM -SN OVC002 00/00 A2979 RMK AO2 T00030003
KEFT 250235Z AUTO 34006KT 2SM -SN OVC002 00/00 A2979 RMK AO2 T00030003
KEFT 250215Z AUTO 35006KT 2SM -RA OVC002 00/00 A2980 RMK AO2 T00030003
KEFT 250155Z AUTO 36005KT 1 1/2SM UP OVC002 00/00 A2980 RMK AO2 T00030003
KEFT 250135Z AUTO 36006KT 1 3/4SM UP OVC002 00/00 A2980 RMK AO2 T00040004
KEFT 250115Z AUTO 36008KT 1 3/4SM RA OVC002 01/01 A2980 RMK AO2 T00050005
KEFT 250055Z AUTO 36007KT 1 1/4SM -RA OVC002 01/01 A2979 RMK AO2 T00050005
KEFT 250035Z AUTO 35007KT 3/4SM DZ OVC002 01/01 A2979 RMK AO2 T00050005
KEFT 250015Z AUTO 36008KT 1/2SM -DZ OVC002 01/01 A2980 RMK AO2 T00060006
KEFT 242355Z AUTO 35008KT 1/4SM FG OVC002 01/01 A2980 RMK AO2 T00070007 10012 20007
KEFT 242335Z AUTO 36009KT 1/4SM FG OVC002 01/01 A2979 RMK AO2 T00070007
KEFT 242315Z AUTO 01008KT M1/4SM FG OVC002 01/01 A2980 RMK AO2 T00080008
KEFT 242255Z AUTO 01007KT M1/4SM FG OVC002 01/01 A2979 RMK AO2 T00100010
KEFT 242235Z AUTO 01008KT M1/4SM FG OVC002 01/01 A2979 RMK AO2 T00100009
KEFT 242215Z AUTO 01007KT 1/2SM FG OVC002 01/01 A2979 RMK AO2 T00100010
KEFT 242155Z AUTO 01009KT 1/2SM FG OVC002 01/01 A2979 RMK AO2 T00110010